Time;durP1;ratioP1;P1;durP2;ratioP2;P2;SDS_P1;SDS_P2;PMS_P1;PMS_P2;Temp;Humidity;BMP_temperature;BMP_pressure;BME280_temperature;BME280_humidity;BME280_pressure;Samples;Min_cycle;Max_cycle;Signal;HPM_P1;HPM_P2
2022/12/26 00:01:42;;;;;;;0.82;0.80;;;17.10;42.90;;;;;;4925550;28;20259;-81
2022/12/26 00:04:09;;;;;;;0.88;0.88;;;17.10;43.00;;;;;;4925874;28;20168;-81
2022/12/26 00:06:35;;;;;;;1.10;1.00;;;17.10;43.00;;;;;;4941497;28;20308;-81
2022/12/26 00:09:02;;;;;;;0.80;0.80;;;17.10;42.90;;;;;;4925505;28;20256;-82
2022/12/26 00:11:28;;;;;;;1.00;0.90;;;17.10;43.00;;;;;;4941643;28;20153;-82
2022/12/26 00:13:56;;;;;;;0.80;0.75;;;17.00;43.00;;;;;;4941568;28;20171;-81
2022/12/26 00:16:21;;;;;;;0.80;0.73;;;17.00;43.00;;;;;;4944689;28;20180;-82
2022/12/26 00:18:47;;;;;;;0.98;0.90;;;17.00;43.00;;;;;;4945206;28;20156;-82
2022/12/26 00:21:14;;;;;;;0.70;0.70;;;17.00;43.00;;;;;;4929221;28;20531;-82
2022/12/26 00:23:40;;;;;;;0.90;0.90;;;17.00;43.10;;;;;;4929813;28;20192;-82
2022/12/26 00:26:08;;;;;;;1.20;1.10;;;17.00;43.00;;;;;;4945040;28;20556;-81
2022/12/26 00:28:34;;;;;;;1.08;0.98;;;17.00;43.00;;;;;;4929264;28;20189;-81
2022/12/26 00:31:16;;;;;;;0.80;0.80;;;17.00;43.00;;;;;;4944851;28;20160;-81
2022/12/26 00:33:42;;;;;;;0.90;0.70;;;17.00;43.20;;;;;;4945195;28;20215;-81
2022/12/26 00:36:12;;;;;;;1.05;0.95;;;17.00;43.10;;;;;;4960832;28;20161;-82
2022/12/26 00:38:38;;;;;;;0.80;0.80;;;17.00;43.10;;;;;;4960806;28;20191;-82
2022/12/26 00:41:04;;;;;;;0.98;0.88;;;17.00;43.20;;;;;;4960742;28;20239;-82
2022/12/26 00:43:30;;;;;;;0.95;0.90;;;17.00;43.20;;;;;;4960590;28;20157;-82
2022/12/26 00:45:56;;;;;;;1.10;1.00;;;17.00;43.20;;;;;;4944698;28;20176;-82
2022/12/26 00:48:21;;;;;;;1.10;1.00;;;16.90;43.10;;;;;;4944652;28;20165;-82
2022/12/26 00:50:47;;;;;;;1.20;0.90;;;17.00;43.20;;;;;;4960602;28;20161;-81
2022/12/26 00:53:13;;;;;;;0.90;0.80;;;17.00;43.20;;;;;;4960490;28;20291;-81
2022/12/26 00:55:38;;;;;;;0.80;0.80;;;17.00;43.20;;;;;;4960434;28;20568;-82
2022/12/26 00:58:04;;;;;;;0.85;0.85;;;17.00;43.20;;;;;;4944452;28;20606;-82
2022/12/26 01:00:32;;;;;;;0.98;0.88;;;17.00;43.30;;;;;;4944501;28;20153;-82
2022/12/26 01:02:57;;;;;;;0.85;0.85;;;17.00;43.20;;;;;;4977745;28;20157;-82
2022/12/26 01:05:23;;;;;;;0.85;0.82;;;17.00;43.20;;;;;;4944619;28;20251;-82
2022/12/26 01:07:49;;;;;;;0.75;0.75;;;17.00;43.20;;;;;;4944376;28;20157;-81
2022/12/26 01:10:14;;;;;;;1.13;1.00;;;17.00;43.30;;;;;;4960256;28;20183;-81
2022/12/26 01:12:40;;;;;;;0.90;0.90;;;16.90;43.20;;;;;;4944161;28;20169;-81
2022/12/26 01:15:06;;;;;;;0.95;0.93;;;17.00;43.30;;;;;;4960063;28;20168;-81
2022/12/26 01:17:32;;;;;;;1.20;1.10;;;17.00;43.30;;;;;;4959900;28;20200;-82
2022/12/26 01:19:58;;;;;;;0.88;0.88;;;17.00;43.20;;;;;;4960084;28;20530;-81
2022/12/26 01:22:24;;;;;;;0.95;0.90;;;17.00;43.30;;;;;;4943891;28;20172;-81
2022/12/26 01:24:53;;;;;;;1.20;1.10;;;16.90;43.20;;;;;;4944041;28;20632;-82
2022/12/26 01:27:19;;;;;;;1.10;0.93;;;16.90;43.20;;;;;;4943708;28;20220;-81
2022/12/26 01:29:44;;;;;;;1.10;1.00;;;16.90;43.30;;;;;;4943885;28;20169;-81
2022/12/26 01:32:10;;;;;;;0.68;0.68;;;17.00;43.30;;;;;;4928275;28;20211;-81
2022/12/26 01:34:36;;;;;;;1.10;1.00;;;17.00;43.30;;;;;;4959642;28;20158;-82
2022/12/26 01:37:01;;;;;;;0.93;0.90;;;16.90;43.30;;;;;;4943545;28;20196;-81
2022/12/26 01:39:27;;;;;;;1.08;0.98;;;16.90;43.30;;;;;;4959735;28;20199;-82
2022/12/26 01:41:53;;;;;;;0.90;0.90;;;16.90;43.30;;;;;;4959841;28;20164;-82
2022/12/26 01:44:57;;;;;;;1.10;1.00;;;16.90;43.30;;;;;;4943554;28;20168;-82
2022/12/26 01:47:24;;;;;;;1.02;0.95;;;16.90;43.40;;;;;;4959575;28;20682;-81
2022/12/26 01:49:51;;;;;;;1.10;1.00;;;16.90;43.40;;;;;;4959647;28;20165;-81
2022/12/26 01:52:23;;;;;;;0.80;0.80;;;16.90;43.30;;;;;;4959396;28;20164;-81
2022/12/26 01:54:49;;;;;;;1.10;1.00;;;16.80;43.40;;;;;;4943827;28;20160;-82
2022/12/26 01:57:18;;;;;;;0.80;0.77;;;16.90;43.40;;;;;;4943437;28;20181;-81
2022/12/26 01:59:43;;;;;;;0.98;0.90;;;16.90;43.40;;;;;;4959730;28;20156;-82
2022/12/26 02:02:10;;;;;;;1.10;0.80;;;16.90;43.40;;;;;;4943210;28;20168;-81
2022/12/26 02:07:22;;;;;;;1.20;1.10;;;16.90;43.50;;;;;;4948549;28;20157;-81
2022/12/26 02:09:48;;;;;;;1.00;0.90;;;16.90;43.60;;;;;;4927228;28;20180;-82
2022/12/26 02:12:28;;;;;;;0.98;0.90;;;16.90;43.50;;;;;;4943288;28;20169;-82
2022/12/26 02:14:55;;;;;;;0.93;0.90;;;16.90;43.60;;;;;;4960056;28;20160;-81
2022/12/26 02:17:24;;;;;;;1.20;0.95;;;16.80;43.50;;;;;;4943268;28;20189;-82
2022/12/26 02:20:16;;;;;;;0.90;0.80;;;16.80;43.90;;;;;;4943035;28;20169;-82
2022/12/26 02:23:21;;;;;;;1.30;1.20;;;16.90;43.60;;;;;;4959062;28;20612;-82
2022/12/26 02:26:23;;;;;;;1.05;0.95;;;16.90;43.60;;;;;;4958474;28;20318;-81
2022/12/26 02:29:27;;;;;;;0.85;0.85;;;16.90;43.50;;;;;;4943040;28;20199;-81
2022/12/26 02:32:14;;;;;;;0.95;0.90;;;16.80;43.60;;;;;;4958346;28;20699;-82
2022/12/26 02:35:01;;;;;;;0.90;0.80;;;16.90;43.60;;;;;;4958565;28;20157;-81
2022/12/26 02:37:37;;;;;;;1.20;1.10;;;16.90;43.60;;;;;;4942040;28;20200;-82
2022/12/26 02:40:24;;;;;;;1.08;0.90;;;16.80;44.30;;;;;;4927814;28;20172;-81
2022/12/26 02:43:01;;;;;;;0.80;0.80;;;16.80;43.60;;;;;;4958568;28;20240;-82
2022/12/26 02:48:41;;;;;;;1.30;1.20;;;16.80;43.50;;;;;;4948247;28;20156;-82
2022/12/26 03:13:32;;;;;;;1.42;1.10;;;16.90;43.70;;;;;;4949056;28;20157;-81
2022/12/26 03:18:43;;;;;;;0.95;0.93;;;16.90;43.70;;;;;;4959203;28;20279;-82
2022/12/26 03:21:10;;;;;;;1.27;1.10;;;16.80;43.70;;;;;;4926313;28;20165;-81
2022/12/26 03:23:35;;;;;;;1.50;1.00;;;16.80;43.70;;;;;;4974979;28;20160;-81
2022/12/26 03:28:41;;;;;;;1.33;1.23;;;16.80;43.70;;;;;;4959237;28;20219;-82
2022/12/26 03:31:09;;;;;;;1.17;1.00;;;16.80;43.80;;;;;;4974836;28;20636;-82
2022/12/26 03:36:56;;;;;;;1.23;1.13;;;16.80;43.80;;;;;;4946786;28;20153;-81
2022/12/26 04:19:57;;;;;;;1.15;1.00;;;16.80;44.00;;;;;;4945882;28;20156;-82
2022/12/26 04:44:23;;;;;;;1.02;1.00;;;16.80;43.90;;;;;;4944854;28;20153;-81
2022/12/26 04:46:49;;;;;;;1.00;1.00;;;16.70;43.90;;;;;;4926124;28;20201;-81
2022/12/26 04:52:04;;;;;;;1.23;1.13;;;16.80;43.90;;;;;;4946720;28;20171;-82
2022/12/26 04:54:30;;;;;;;1.23;1.13;;;16.80;43.90;;;;;;4925109;28;20172;-81
2022/12/26 04:56:56;;;;;;;1.15;1.05;;;16.80;43.90;;;;;;4956715;28;20199;-81
2022/12/26 04:59:21;;;;;;;1.00;0.93;;;16.70;43.90;;;;;;4956805;28;20193;-81
2022/12/26 05:10:01;;;;;;;1.23;1.13;;;16.80;43.90;;;;;;4949711;28;20149;-82
2022/12/26 05:12:27;;;;;;;1.38;1.23;;;16.80;44.00;;;;;;4944216;28;20161;-81
2022/12/26 05:14:53;;;;;;;1.40;1.20;;;16.70;44.00;;;;;;4960048;28;20165;-81
2022/12/26 05:30:43;;;;;;;1.17;1.08;;;16.80;44.10;;;;;;4961881;28;20620;-82
2022/12/26 05:35:51;;;;;;;1.30;1.20;;;16.70;44.10;;;;;;4962038;28;20164;-81
2022/12/26 05:38:18;;;;;;;1.25;1.15;;;16.80;44.00;;;;;;4976870;28;20196;-82
2022/12/26 05:40:43;;;;;;;1.20;1.02;;;16.80;43.70;;;;;;4959692;28;20160;-82
2022/12/26 05:43:09;;;;;;;1.13;1.02;;;17.00;43.70;;;;;;4959599;28;20156;-82
2022/12/26 05:45:35;;;;;;;1.20;1.10;;;17.00;43.60;;;;;;4959596;28;20161;-82
2022/12/26 05:48:01;;;;;;;1.23;1.10;;;17.00;43.60;;;;;;4959585;28;20524;-82
2022/12/26 05:50:27;;;;;;;0.93;0.93;;;17.00;43.50;;;;;;4943567;28;20176;-82
2022/12/26 05:52:55;;;;;;;1.23;0.90;;;17.00;43.50;;;;;;4943501;28;20168;-82
2022/12/26 05:55:22;;;;;;;1.10;1.00;;;17.00;43.50;;;;;;4943682;28;20157;-82
2022/12/26 05:57:48;;;;;;;1.02;0.93;;;17.00;43.50;;;;;;4959546;28;20560;-83
2022/12/26 06:00:14;;;;;;;1.13;1.02;;;17.10;43.40;;;;;;4943580;28;20296;-82
2022/12/26 06:02:40;;;;;;;1.02;0.98;;;17.10;43.50;;;;;;4927416;28;20173;-81
2022/12/26 06:05:05;;;;;;;1.27;1.10;;;17.10;43.40;;;;;;4959238;28;20208;-81
2022/12/26 06:07:31;;;;;;;1.90;1.20;;;17.10;43.20;;;;;;4943156;28;20152;-81
2022/12/26 06:09:57;;;;;;;1.20;1.05;;;17.20;43.20;;;;;;4959099;28;20201;-82
2022/12/26 06:12:22;;;;;;;1.42;1.30;;;17.20;43.10;;;;;;4957882;28;20165;-82
2022/12/26 06:14:48;;;;;;;1.25;1.15;;;17.20;43.20;;;;;;4943028;28;20229;-82
2022/12/26 06:17:14;;;;;;;1.00;0.93;;;17.30;43.10;;;;;;4943018;28;20600;-82
2022/12/26 06:19:39;;;;;;;1.27;1.10;;;17.30;43.10;;;;;;4927138;28;20535;-81
2022/12/26 06:22:07;;;;;;;1.48;1.17;;;17.30;43.10;;;;;;4926976;28;20549;-82
2022/12/26 06:24:32;;;;;;;1.58;1.20;;;17.30;43.00;;;;;;4958857;28;20216;-82
2022/12/26 06:26:58;;;;;;;1.25;1.10;;;17.30;43.00;;;;;;4926725;28;20621;-82
2022/12/26 06:29:24;;;;;;;1.20;1.08;;;17.30;42.90;;;;;;4926822;28;20591;-81
2022/12/26 06:31:49;;;;;;;1.10;1.00;;;17.30;42.90;;;;;;4942796;28;20505;-82
2022/12/26 06:34:17;;;;;;;1.30;1.20;;;17.40;42.90;;;;;;4942819;28;20180;-82
2022/12/26 06:36:42;;;;;;;1.10;1.00;;;17.30;42.80;;;;;;4975819;28;20164;-82
2022/12/26 06:39:09;;;;;;;1.42;1.20;;;17.40;42.90;;;;;;4958639;28;20569;-81
2022/12/26 06:41:35;;;;;;;1.30;1.20;;;17.40;42.90;;;;;;4958403;28;20153;-82
2022/12/26 06:44:00;;;;;;;1.20;1.10;;;17.30;42.80;;;;;;4942678;28;20176;-81
2022/12/26 06:46:26;;;;;;;1.33;1.10;;;17.40;42.80;;;;;;4926726;28;20169;-82
2022/12/26 06:48:52;;;;;;;1.20;1.10;;;17.40;42.90;;;;;;4958297;28;20281;-82
2022/12/26 06:51:20;;;;;;;1.33;1.20;;;17.40;42.90;;;;;;4942620;28;20647;-82
2022/12/26 06:53:47;;;;;;;1.20;1.10;;;17.40;42.80;;;;;;4942514;28;20164;-82
2022/12/26 06:56:16;;;;;;;1.48;1.20;;;17.40;42.80;;;;;;4942227;28;20616;-82
2022/12/26 06:58:41;;;;;;;1.02;0.93;;;17.50;42.80;;;;;;4942305;28;20195;-82
2022/12/26 07:01:09;;;;;;;1.05;1.00;;;17.40;42.70;;;;;;4942035;28;20157;-81
2022/12/26 07:03:35;;;;;;;1.17;1.00;;;17.50;42.70;;;;;;4926786;28;20165;-82
2022/12/26 07:06:04;;;;;;;1.20;1.10;;;17.40;42.80;;;;;;4941897;28;20175;-82
2022/12/26 07:08:29;;;;;;;1.17;1.08;;;17.50;42.80;;;;;;4942073;28;20215;-82
2022/12/26 07:10:55;;;;;;;1.55;1.25;;;17.50;42.80;;;;;;4941989;28;20184;-82
2022/12/26 07:13:21;;;;;;;0.98;0.80;;;17.40;42.80;;;;;;4957927;28;20244;-82
2022/12/26 07:15:46;;;;;;;1.05;0.98;;;17.50;42.80;;;;;;4957845;28;20156;-84
2022/12/26 07:18:12;;;;;;;1.23;1.00;;;17.50;42.70;;;;;;4957706;28;20208;-82
2022/12/26 07:20:38;;;;;;;0.90;0.90;;;17.60;42.80;;;;;;4926059;28;20525;-82
2022/12/26 07:23:03;;;;;;;0.80;0.80;;;17.50;42.70;;;;;;4957710;28;20193;-82
2022/12/26 07:25:29;;;;;;;1.20;1.08;;;17.40;42.70;;;;;;4941732;28;20153;-82
2022/12/26 07:27:55;;;;;;;1.25;0.98;;;17.50;42.70;;;;;;4958048;28;20718;-82
2022/12/26 07:30:20;;;;;;;0.88;0.88;;;17.50;42.70;;;;;;4958980;28;20542;-82
2022/12/26 07:32:47;;;;;;;1.67;1.20;;;17.50;42.80;;;;;;4942751;28;20288;-82
2022/12/26 07:35:13;;;;;;;1.52;1.10;;;17.50;42.70;;;;;;4942964;28;20199;-81
2022/12/26 07:37:38;;;;;;;0.80;0.80;;;17.50;42.60;;;;;;4943086;28;20216;-82
2022/12/26 07:40:04;;;;;;;0.90;0.90;;;17.60;42.60;;;;;;4976076;28;20168;-82
2022/12/26 07:42:30;;;;;;;1.25;0.93;;;17.60;42.60;;;;;;4942888;28;20193;-82
2022/12/26 07:44:56;;;;;;;0.90;0.80;;;17.60;42.60;;;;;;4942739;28;20204;-82
2022/12/26 07:47:21;;;;;;;1.30;1.02;;;17.50;42.50;;;;;;4958848;28;20302;-82
2022/12/26 07:49:48;;;;;;;1.20;0.98;;;17.60;42.60;;;;;;4958867;28;20521;-81
2022/12/26 07:52:14;;;;;;;0.90;0.88;;;17.60;42.60;;;;;;4959127;28;20157;-82
2022/12/26 07:54:40;;;;;;;1.48;1.08;;;17.60;42.70;;;;;;4927594;28;20176;-82
2022/12/26 07:57:05;;;;;;;1.15;0.98;;;17.60;43.30;;;;;;4927500;28;20228;-82
2022/12/26 07:59:31;;;;;;;1.10;1.00;;;17.60;42.60;;;;;;4927243;28;20523;-82
2022/12/26 08:01:58;;;;;;;1.05;0.88;;;17.60;42.60;;;;;;4927837;28;20164;-82
2022/12/26 08:04:24;;;;;;;1.17;1.05;;;17.60;42.60;;;;;;4959539;28;20246;-82
2022/12/26 08:06:50;;;;;;;1.10;0.90;;;17.60;42.60;;;;;;4943418;28;20192;-82
2022/12/26 08:09:16;;;;;;;0.85;0.80;;;17.60;42.60;;;;;;4943329;28;20153;-81
2022/12/26 08:11:43;;;;;;;0.98;0.88;;;17.60;42.70;;;;;;4927855;28;20188;-82
2022/12/26 08:14:11;;;;;;;1.10;0.98;;;17.60;42.60;;;;;;4929573;28;20176;-82
2022/12/26 08:16:36;;;;;;;1.10;1.00;;;17.60;42.70;;;;;;4943838;28;20145;-82
2022/12/26 08:19:03;;;;;;;1.08;0.93;;;17.60;42.70;;;;;;4960677;28;20171;-81
2022/12/26 08:21:29;;;;;;;1.05;0.95;;;17.60;42.70;;;;;;4946496;28;20164;-81
2022/12/26 08:23:55;;;;;;;1.08;0.82;;;17.60;42.70;;;;;;4946446;28;20177;-82
2022/12/26 08:26:22;;;;;;;1.00;0.90;;;17.60;42.70;;;;;;4946223;28;20628;-82
2022/12/26 08:28:48;;;;;;;1.25;1.10;;;17.50;42.70;;;;;;4946450;28;20149;-82
2022/12/26 08:31:14;;;;;;;0.98;0.85;;;17.60;42.80;;;;;;4962024;28;20157;-82
2022/12/26 08:33:39;;;;;;;1.00;0.88;;;17.60;42.80;;;;;;4930496;28;20275;-82
2022/12/26 08:36:08;;;;;;;2.08;0.80;;;17.70;42.80;;;;;;4946488;28;20164;-82
2022/12/26 08:38:35;;;;;;;2.75;1.10;;;17.70;42.70;;;;;;4982482;28;20539;-81
2022/12/26 08:41:01;;;;;;;0.80;0.80;;;17.70;42.60;;;;;;4948497;28;20161;-82
2022/12/26 08:43:27;;;;;;;0.70;0.70;;;17.70;42.70;;;;;;4948740;28;20161;-82
2022/12/26 08:45:57;;;;;;;0.90;0.90;;;17.70;42.70;;;;;;4948700;28;20161;-82
2022/12/26 08:48:23;;;;;;;0.77;0.75;;;17.70;42.70;;;;;;4947955;28;20172;-82
2022/12/26 08:51:05;;;;;;;1.75;0.90;;;17.70;42.80;;;;;;4948033;28;20252;-82
2022/12/26 08:53:34;;;;;;;1.08;0.98;;;17.60;42.70;;;;;;4948279;28;20169;-82
2022/12/26 08:56:00;;;;;;;1.25;0.88;;;17.70;42.70;;;;;;4932873;28;20195;-82
2022/12/26 08:58:26;;;;;;;0.80;0.80;;;17.70;42.70;;;;;;4947785;28;20655;-82
2022/12/26 09:00:52;;;;;;;1.15;0.90;;;17.70;42.70;;;;;;4946835;28;20173;-82
2022/12/26 09:03:17;;;;;;;0.82;0.70;;;17.70;42.80;;;;;;4963412;28;20165;-82
2022/12/26 09:05:43;;;;;;;1.10;0.90;;;17.70;42.80;;;;;;4946641;28;20185;-82
2022/12/26 09:08:09;;;;;;;1.02;0.80;;;17.80;42.80;;;;;;4962641;28;20149;-82
2022/12/26 09:10:35;;;;;;;1.02;0.85;;;17.80;42.70;;;;;;4929538;28;20235;-81
2022/12/26 09:13:01;;;;;;;1.10;1.00;;;17.80;42.70;;;;;;4930057;28;20177;-82
2022/12/26 09:15:27;;;;;;;1.00;0.90;;;17.80;42.80;;;;;;4944736;28;20628;-82
2022/12/26 09:17:53;;;;;;;1.08;0.88;;;17.80;42.80;;;;;;4944184;28;20196;-82
2022/12/26 09:20:19;;;;;;;0.98;0.90;;;17.80;42.80;;;;;;4960175;28;20160;-82
2022/12/26 09:22:53;;;;;;;1.13;0.80;;;17.80;42.90;;;;;;4961014;28;20161;-82
2022/12/26 09:25:20;;;;;;;1.13;0.98;;;17.70;42.80;;;;;;4950866;28;20543;-82
2022/12/26 09:27:47;;;;;;;0.98;0.88;;;17.70;42.90;;;;;;4950687;28;20275;-82
2022/12/26 09:30:14;;;;;;;1.15;0.85;;;17.70;42.90;;;;;;4934509;28;20263;-83
2022/12/26 09:32:39;;;;;;;2.00;0.77;;;17.70;43.00;;;;;;4935239;28;20255;-82
2022/12/26 09:35:06;;;;;;;1.10;0.90;;;17.70;43.10;;;;;;4948767;28;20612;-82
2022/12/26 09:37:34;;;;;;;1.00;0.90;;;17.70;43.20;;;;;;4945604;28;20211;-82
2022/12/26 09:40:00;;;;;;;0.80;0.80;;;17.70;43.20;;;;;;4946242;28;20163;-82
2022/12/26 09:42:46;;;;;;;0.80;0.80;;;17.70;43.20;;;;;;4948551;28;20240;-82
2022/12/26 09:45:16;;;;;;;1.25;1.00;;;17.70;43.20;;;;;;4948497;28;20156;-81
2022/12/26 09:47:56;;;;;;;0.93;0.90;;;17.70;43.20;;;;;;4927862;28;20324;-82
2022/12/26 09:50:29;;;;;;;0.77;0.77;;;17.70;43.10;;;;;;4928815;28;20212;-82
2022/12/26 09:52:55;;;;;;;1.58;0.85;;;17.80;43.10;;;;;;4944645;28;20209;-82
2022/12/26 09:55:54;;;;;;;1.05;0.90;;;17.80;43.20;;;;;;4945166;28;20264;-82
2022/12/26 09:58:30;;;;;;;1.75;0.88;;;17.80;43.10;;;;;;4961488;28;20346;-83
2022/12/26 10:01:02;;;;;;;1.38;1.10;;;17.80;43.10;;;;;;4947182;28;20160;-82
2022/12/26 10:03:28;;;;;;;2.60;1.00;;;17.80;43.10;;;;;;4945844;28;20268;-82
2022/12/26 10:06:08;;;;;;;0.80;0.75;;;17.80;43.10;;;;;;4932148;28;20179;-82
2022/12/26 10:08:43;;;;;;;1.20;1.10;;;17.80;43.30;;;;;;4947700;28;20232;-83
2022/12/26 10:11:15;;;;;;;1.10;1.00;;;17.70;43.20;;;;;;4948175;28;20608;-83
2022/12/26 10:13:47;;;;;;;2.08;1.20;;;17.70;43.30;;;;;;4981145;28;20173;-82
2022/12/26 10:16:24;;;;;;;1.00;0.90;;;17.80;43.30;;;;;;4932421;28;20180;-83
2022/12/26 10:19:02;;;;;;;0.98;0.88;;;17.80;43.30;;;;;;4981301;28;20189;-82
2022/12/26 10:21:50;;;;;;;3.50;0.90;;;17.70;43.30;;;;;;4931305;28;20196;-83
2022/12/26 10:24:17;;;;;;;1.15;1.00;;;17.70;43.30;;;;;;4949438;28;20547;-83
2022/12/26 10:26:46;;;;;;;1.52;1.08;;;17.70;43.40;;;;;;4933305;28;20220;-83
2022/12/26 10:29:19;;;;;;;0.85;0.85;;;17.80;43.40;;;;;;4949616;28;20153;-82
2022/12/26 10:31:54;;;;;;;1.10;1.00;;;17.80;43.40;;;;;;4932171;28;20204;-82
2022/12/26 10:34:35;;;;;;;0.80;0.80;;;17.70;43.40;;;;;;4947063;28;20161;-82
2022/12/26 10:37:25;;;;;;;2.03;0.95;;;17.80;43.40;;;;;;4947600;28;20145;-82
2022/12/26 10:39:58;;;;;;;1.30;0.80;;;17.80;43.50;;;;;;4962623;28;20153;-81
2022/12/26 10:42:33;;;;;;;1.30;0.95;;;17.90;43.70;;;;;;4931928;28;20177;-82
2022/12/26 10:44:59;;;;;;;1.10;0.88;;;17.90;44.40;;;;;;4948147;28;20259;-81
2022/12/26 10:47:40;;;;;;;2.20;0.85;;;17.90;43.80;;;;;;4947846;28;20192;-81
2022/12/26 10:50:08;;;;;;;3.35;1.20;;;17.90;43.80;;;;;;4931625;28;20173;-81
2022/12/26 10:52:37;;;;;;;2.70;0.90;;;17.90;43.80;;;;;;4949286;28;20160;-82
2022/12/26 10:55:03;;;;;;;1.70;1.23;;;17.90;43.80;;;;;;4932644;28;20173;-81
2022/12/26 10:57:30;;;;;;;1.48;1.20;;;17.90;43.80;;;;;;4933256;28;20224;-81
2022/12/26 10:59:56;;;;;;;1.40;1.00;;;17.90;43.90;;;;;;4948463;28;20192;-82
2022/12/26 11:02:27;;;;;;;2.10;1.10;;;17.90;43.90;;;;;;4963072;28;20161;-82
2022/12/26 11:05:10;;;;;;;1.30;1.10;;;17.90;43.90;;;;;;4949298;28;20674;-82
2022/12/26 11:07:49;;;;;;;3.55;1.00;;;17.90;44.10;;;;;;4950650;28;20161;-81
2022/12/26 11:10:18;;;;;;;1.23;1.13;;;17.90;44.10;;;;;;4947633;28;20236;-82
2022/12/26 11:12:53;;;;;;;4.00;1.13;;;17.90;44.10;;;;;;4945487;28;20256;-82
2022/12/26 11:15:25;;;;;;;3.22;1.08;;;17.90;44.10;;;;;;4930169;28;20171;-82
2022/12/26 11:17:54;;;;;;;2.40;0.95;;;18.00;44.10;;;;;;4947191;28;20211;-81
2022/12/26 11:20:25;;;;;;;1.98;0.93;;;18.00;44.20;;;;;;4931498;28;20168;-81
2022/12/26 11:22:52;;;;;;;1.00;0.90;;;17.90;44.30;;;;;;4944936;28;20160;-82
2022/12/26 11:25:23;;;;;;;1.27;1.17;;;18.00;44.30;;;;;;4930868;28;20188;-82
2022/12/26 11:27:57;;;;;;;1.60;1.13;;;18.00;44.30;;;;;;4930940;28;20239;-82
2022/12/26 11:30:27;;;;;;;2.05;0.88;;;18.00;44.50;;;;;;4962799;28;20164;-82
2022/12/26 11:33:15;;;;;;;1.98;1.20;;;18.00;44.80;;;;;;4930651;28;20180;-82
2022/12/26 11:35:52;;;;;;;1.83;0.95;;;18.00;44.80;;;;;;4945335;28;20176;-82
2022/12/26 11:38:33;;;;;;;3.88;1.20;;;18.00;45.00;;;;;;4931324;28;20188;-84
2022/12/26 11:41:35;;;;;;;5.07;1.55;;;18.00;45.00;;;;;;4933960;28;20670;-82
2022/12/26 11:43:49;;;;;;;1.83;1.30;;;18.00;45.00;;;;;;4952519;28;20263;-82
2022/12/26 11:46:16;;;;;;;1.42;1.10;;;18.00;45.00;;;;;;4947932;28;20558;-82
2022/12/26 11:48:45;;;;;;;4.60;1.08;;;18.00;45.20;;;;;;4963034;28;20164;-84
2022/12/26 11:51:11;;;;;;;3.38;1.38;;;18.00;45.20;;;;;;4947154;28;20207;-82
2022/12/26 11:53:36;;;;;;;1.65;1.05;;;18.00;45.20;;;;;;4944845;28;20629;-83
2022/12/26 11:56:10;;;;;;;3.10;1.15;;;18.10;45.20;;;;;;4944018;28;20167;-82
2022/12/26 11:58:37;;;;;;;1.25;0.95;;;18.00;45.20;;;;;;4931389;28;20203;-82
2022/12/26 12:01:05;;;;;;;1.95;1.20;;;18.10;45.10;;;;;;4962432;28;20160;-83
2022/12/26 12:03:43;;;;;;;2.05;1.40;;;18.10;45.20;;;;;;4946057;28;20161;-82
2022/12/26 12:06:35;;;;;;;1.80;1.20;;;18.10;45.30;;;;;;4931975;28;20168;-82
2022/12/26 12:09:14;;;;;;;1.77;1.10;;;18.10;45.30;;;;;;4949144;28;20604;-82
2022/12/26 12:12:13;;;;;;;2.70;1.13;;;18.10;45.50;;;;;;4934780;28;20179;-82
2022/12/26 12:14:54;;;;;;;2.45;1.10;;;18.10;45.40;;;;;;4985954;28;20172;-82
2022/12/26 12:17:44;;;;;;;3.15;1.27;;;18.10;45.30;;;;;;4936642;28;20231;-82
2022/12/26 12:20:44;;;;;;;4.20;1.20;;;18.10;45.30;;;;;;4982585;28;20183;-83
2022/12/26 12:23:19;;;;;;;3.83;1.30;;;18.20;45.40;;;;;;4964808;28;20164;-82
2022/12/26 12:26:13;;;;;;;1.63;1.10;;;18.00;45.40;;;;;;4948497;28;20163;-83
2022/12/26 12:29:03;;;;;;;1.83;1.10;;;18.10;45.40;;;;;;4935068;28;20208;-83
2022/12/26 12:31:41;;;;;;;1.63;1.33;;;18.10;45.50;;;;;;4967498;28;20168;-82
2022/12/26 12:34:20;;;;;;;1.27;1.00;;;18.20;45.60;;;;;;4933963;28;20176;-83
2022/12/26 12:37:23;;;;;;;2.63;1.13;;;18.10;45.70;;;;;;4951477;28;20168;-82
2022/12/26 12:40:13;;;;;;;1.15;0.95;;;18.10;45.80;;;;;;4971003;28;20175;-81
2022/12/26 12:42:43;;;;;;;5.97;1.20;;;18.10;46.40;;;;;;4970350;28;20158;-81
2022/12/26 12:45:26;;;;;;;2.85;1.30;;;18.10;45.70;;;;;;4965097;28;20172;-82
2022/12/26 12:48:10;;;;;;;1.30;0.85;;;18.10;45.70;;;;;;4964228;28;20169;-81
2022/12/26 12:50:43;;;;;;;1.73;1.15;;;18.10;45.50;;;;;;4946685;28;20173;-81
2022/12/26 12:53:31;;;;;;;1.42;1.08;;;18.10;45.60;;;;;;4947688;28;20184;-82
2022/12/26 12:56:33;;;;;;;1.40;1.10;;;18.10;45.60;;;;;;4947874;28;20542;-82
2022/12/26 12:59:16;;;;;;;2.78;1.08;;;18.10;45.70;;;;;;4963665;28;20203;-83
2022/12/26 13:01:43;;;;;;;1.45;0.95;;;18.10;45.50;;;;;;4950023;28;20161;-82
2022/12/26 13:04:22;;;;;;;1.48;1.15;;;18.20;45.70;;;;;;4964304;28;20158;-83
2022/12/26 13:06:52;;;;;;;1.52;1.05;;;18.20;45.50;;;;;;4965508;28;20587;-83
2022/12/26 13:09:29;;;;;;;1.40;1.30;;;18.10;45.60;;;;;;4948026;28;20211;-82
2022/12/26 13:12:20;;;;;;;3.25;0.93;;;18.10;45.70;;;;;;4946344;28;20171;-83
2022/12/26 13:14:50;;;;;;;2.08;0.90;;;18.10;45.90;;;;;;4946685;28;20153;-82
2022/12/26 13:17:21;;;;;;;1.45;1.10;;;18.10;46.00;;;;;;4946678;28;20682;-83
2022/12/26 13:20:05;;;;;;;4.22;1.10;;;18.10;45.70;;;;;;4933908;28;20180;-82
2022/12/26 13:25:25;;;;;;;2.65;0.93;;;18.10;46.00;;;;;;4953582;28;20623;-82
2022/12/26 13:27:52;;;;;;;1.90;1.10;;;18.10;46.00;;;;;;4963185;28;20224;-82
2022/12/26 13:30:18;;;;;;;1.20;1.02;;;18.10;46.00;;;;;;4948524;28;20185;-83
2022/12/26 13:32:44;;;;;;;1.33;0.93;;;18.10;45.80;;;;;;4963436;28;20546;-83
2022/12/26 13:35:43;;;;;;;1.98;1.08;;;18.20;46.00;;;;;;4948340;28;20152;-84
2022/12/26 13:38:10;;;;;;;1.30;1.10;;;18.10;46.00;;;;;;4980887;28;20523;-83
2022/12/26 13:40:38;;;;;;;2.85;1.10;;;18.20;46.10;;;;;;4932246;28;20573;-83
2022/12/26 13:46:00;;;;;;;1.33;1.20;;;18.20;46.10;;;;;;4955079;28;20147;-83
2022/12/26 13:48:46;;;;;;;1.38;1.02;;;18.10;46.20;;;;;;4949327;28;20211;-83
2022/12/26 13:51:43;;;;;;;1.98;1.10;;;18.20;46.10;;;;;;4932791;28;20177;-83
2022/12/26 13:54:10;;;;;;;1.30;1.20;;;18.20;46.20;;;;;;4965363;28;20180;-83
2022/12/26 13:57:00;;;;;;;2.10;1.17;;;18.10;46.20;;;;;;4948131;28;20508;-83
2022/12/26 13:59:29;;;;;;;1.00;0.90;;;18.20;46.20;;;;;;4950416;28;20618;-83
2022/12/26 14:02:12;;;;;;;1.33;1.10;;;18.10;46.00;;;;;;4932249;28;20164;-83
2022/12/26 14:05:03;;;;;;;1.17;1.05;;;18.20;46.10;;;;;;4935620;28;20206;-82
2022/12/26 14:07:52;;;;;;;1.45;1.15;;;18.20;46.20;;;;;;4962511;28;20187;-80
2022/12/26 14:10:39;;;;;;;1.25;1.08;;;18.20;46.10;;;;;;4961342;28;20160;-81
2022/12/26 14:13:26;;;;;;;1.30;1.00;;;18.20;46.30;;;;;;4947787;28;20165;-81
2022/12/26 14:15:58;;;;;;;1.75;1.10;;;18.20;46.10;;;;;;4950132;28;20251;-82
2022/12/26 14:18:47;;;;;;;2.17;1.00;;;18.20;46.20;;;;;;4950744;28;20200;-83
2022/12/26 14:21:29;;;;;;;2.63;1.30;;;18.20;46.20;;;;;;4981684;28;20150;-82
2022/12/26 14:24:13;;;;;;;1.20;1.10;;;18.10;46.30;;;;;;4932505;28;20161;-82
2022/12/26 14:26:58;;;;;;;3.17;1.00;;;18.20;46.30;;;;;;4965066;28;20208;-82
2022/12/26 14:29:31;;;;;;;2.58;0.90;;;18.20;46.30;;;;;;4948732;28;20187;-82
2022/12/26 14:32:11;;;;;;;1.10;1.00;;;18.20;46.40;;;;;;4949238;28;20228;-82
2022/12/26 14:35:03;;;;;;;1.15;1.05;;;18.20;46.30;;;;;;4963695;28;20153;-81
2022/12/26 14:37:39;;;;;;;1.02;0.90;;;18.20;46.20;;;;;;4966276;28;20192;-81
2022/12/26 14:40:34;;;;;;;1.02;0.82;;;18.20;46.20;;;;;;4951827;28;20514;-81
2022/12/26 14:43:12;;;;;;;1.33;1.17;;;18.20;46.30;;;;;;4933284;28;20173;-81
2022/12/26 14:45:42;;;;;;;2.83;1.00;;;18.20;46.40;;;;;;4931106;28;20156;-81
2022/12/26 14:48:38;;;;;;;1.15;1.05;;;18.20;46.40;;;;;;4961125;28;20236;-80
2022/12/26 14:51:25;;;;;;;1.17;0.98;;;18.20;46.30;;;;;;4959678;28;20165;-81
2022/12/26 14:54:24;;;;;;;1.52;1.02;;;18.20;46.40;;;;;;4961277;28;20184;-82
2022/12/26 14:56:50;;;;;;;1.00;0.90;;;18.20;46.30;;;;;;4941135;29;20169;-82
2022/12/26 14:59:31;;;;;;;2.33;1.27;;;18.10;46.30;;;;;;4926139;29;20185;-81
2022/12/26 15:02:10;;;;;;;3.65;0.98;;;18.20;46.40;;;;;;4957664;29;20523;-81
2022/12/26 15:04:46;;;;;;;1.90;0.90;;;18.10;46.40;;;;;;4958257;28;20198;-81
2022/12/26 15:07:44;;;;;;;3.08;1.02;;;18.20;46.50;;;;;;4944283;28;20674;-82
2022/12/26 15:10:26;;;;;;;3.45;1.02;;;18.20;46.60;;;;;;4933241;28;20643;-81
2022/12/26 15:13:18;;;;;;;1.13;1.00;;;18.20;46.60;;;;;;4946079;28;20177;-81
2022/12/26 15:16:17;;;;;;;1.67;0.70;;;18.20;46.80;;;;;;4956903;28;20184;-81
2022/12/26 15:19:13;;;;;;;2.28;1.30;;;18.20;46.80;;;;;;4944941;28;20539;-81
2022/12/26 15:22:00;;;;;;;2.35;0.80;;;18.10;46.60;;;;;;4962112;28;20188;-81
2022/12/26 15:24:43;;;;;;;2.67;1.17;;;18.20;46.90;;;;;;4943559;28;20619;-81
2022/12/26 15:27:30;;;;;;;1.10;0.80;;;18.20;47.10;;;;;;4980389;28;20256;-82